Marshall Army Air Field Fort Riley(Junction City) US
ICAO: KFRI
IATA: FRI
Category: Medium
Scheduled Services: No

Elevation: 1065 ft
TransAlt. 18000 ft.

Airport Communications:
VFR ADVSY SVC:126.2
KANSAS CITY CNTR:127.35
ASOS:118.375
CTAF:126.2
RANGE CON:40.8
OPS:40.55

KFRI Zoom In..

Runways:

(A) RW 04 length 4503 ft width 100 ft
---- / hdg 44

(B) RW 22 length 4503 ft width 100 ft
---- / hdg 224

Location; KFRI
Day. 24 / Time. 13.06 Zulu
* Altimeter: 30.06
* Temperature: 22° c. 71.6°f.
* Wind from: VRB° Speed 06 kn.
Dewpoint: 19° c.
Visibility: 10 Statute Miles.
Clouds: Broken 1000 ft.

KFRI 241306Z VRB06KT 10SM BKN010 22/19 A3006 RMK AO2A SLPNO WND DATA ESTMD ALSTG ESTMD


Wind From VRB°
Speed 06 kn.

 
 
jpsmedia.com for Web Design SOUNDCLOUD worldairports.se 2018   terms of use